createdAt,value
2023-03-05T00:01:58.235Z,99072.31
2023-03-05T00:04:27.267Z,99067.95
2023-03-05T00:07:00.022Z,99066.27
2023-03-05T00:09:28.714Z,99061.97
2023-03-05T00:11:58.147Z,99059.06
2023-03-05T00:14:26.606Z,99071.23
2023-03-05T00:19:36.532Z,99059.23
2023-03-05T00:22:28.899Z,99053.95
2023-03-05T00:24:58.971Z,99041.58
2023-03-05T00:27:29.532Z,99032.08
2023-03-05T00:30:03.128Z,99034.58
2023-03-05T00:32:57.717Z,99036.21
2023-03-05T00:35:28.514Z,99042.84
2023-03-05T00:37:59.812Z,99037.60
2023-03-05T00:40:33.251Z,99045.23
2023-03-05T00:43:03.050Z,99053.92
2023-03-05T00:45:35.083Z,99044.42
2023-03-05T00:48:08.139Z,99045.03
2023-03-05T00:50:44.557Z,99034.17
2023-03-05T00:53:15.548Z,99045.22
2023-03-05T00:55:47.931Z,99050.95
2023-03-05T00:58:18.759Z,99048.61
2023-03-05T01:00:50.818Z,99064.80
2023-03-05T01:03:27.185Z,99053.52
2023-03-05T01:06:01.456Z,99061.02
2023-03-05T01:08:32.942Z,99066.77
2023-03-05T01:11:02.123Z,99068.34
2023-03-05T01:13:36.075Z,99067.23
2023-03-05T01:16:06.250Z,99074.17
2023-03-05T01:18:37.286Z,99067.65
2023-03-05T01:21:07.412Z,99090.50
2023-03-05T01:23:45.255Z,99100.05
2023-03-05T01:26:16.421Z,99107.47
2023-03-05T01:28:47.116Z,99097.36
2023-03-05T01:31:21.208Z,99102.06
2023-03-05T01:33:54.130Z,99104.95
2023-03-05T01:36:27.769Z,99095.94
2023-03-05T01:38:57.026Z,99101.98
2023-03-05T01:41:28.765Z,99102.52
2023-03-05T01:43:57.709Z,99110.44
2023-03-05T01:46:33.286Z,99108.75
2023-03-05T01:49:18.041Z,99119.72
2023-03-05T01:52:18.037Z,99128.15
2023-03-05T01:54:54.816Z,99122.93
2023-03-05T01:57:32.947Z,99119.34
2023-03-05T02:00:07.189Z,99133.58
2023-03-05T02:02:48.478Z,99130.48
2023-03-05T02:05:27.237Z,99131.73
2023-03-05T02:07:57.702Z,99149.62
2023-03-05T02:10:32.839Z,99129.77
2023-03-05T02:13:08.861Z,99137.77
2023-03-05T02:15:41.882Z,99145.33
2023-03-05T02:24:58.984Z,99154.79
2023-03-05T02:27:34.547Z,99149.33
2023-03-05T02:30:01.849Z,99145.50
2023-03-05T02:32:31.076Z,99152.92
2023-03-05T02:35:04.368Z,99154.62
2023-03-05T02:37:33.132Z,99148.27
2023-03-05T02:40:03.495Z,99151.27
2023-03-05T02:42:35.409Z,99166.36
2023-03-05T02:45:05.656Z,99174.61
2023-03-05T02:47:34.301Z,99172.71
2023-03-05T02:50:04.836Z,99154.67
2023-03-05T02:52:38.862Z,99155.80
2023-03-05T02:55:11.432Z,99155.98
2023-03-05T02:57:40.518Z,99151.08
2023-03-05T03:00:09.076Z,99150.71
2023-03-05T03:02:38.441Z,99139.52
2023-03-05T03:05:09.244Z,99139.78
2023-03-05T03:07:37.446Z,99141.48
2023-03-05T03:10:09.183Z,99147.21
2023-03-05T03:12:39.351Z,99147.09
2023-03-05T03:15:07.460Z,99149.45
2023-03-05T03:17:37.904Z,99153.80
2023-03-05T03:20:09.048Z,99159.95
2023-03-05T03:22:37.370Z,99157.30
2023-03-05T03:25:09.111Z,99156.07
2023-03-05T03:27:38.287Z,99159.23
2023-03-05T03:30:07.068Z,99165.02
2023-03-05T03:32:38.044Z,99168.46
2023-03-05T03:35:07.793Z,99168.05
2023-03-05T03:37:37.251Z,99169.23
2023-03-05T03:40:12.601Z,99174.77
2023-03-05T03:42:45.999Z,99179.60
2023-03-05T03:45:21.413Z,99175.44
2023-03-05T03:47:53.084Z,99192.65
2023-03-05T03:50:24.917Z,99186.34
2023-03-05T03:53:09.166Z,99183.98
2023-03-05T03:55:39.104Z,99195.87
2023-03-05T03:58:07.318Z,99187.98
2023-03-05T04:00:39.115Z,99198.17
2023-03-05T04:03:08.309Z,99198.47
2023-03-05T04:05:39.488Z,99203.15
2023-03-05T04:08:11.551Z,99206.66
2023-03-05T04:10:42.176Z,99192.54
2023-03-05T04:19:49.699Z,99193.83
2023-03-05T04:22:20.895Z,99201.52
2023-03-05T04:24:50.150Z,99191.16
2023-03-05T04:27:18.352Z,99194.19
2023-03-05T04:30:08.162Z,99197.69
2023-03-05T04:32:38.440Z,99199.16
2023-03-05T04:35:12.103Z,99203.15
2023-03-05T04:37:45.113Z,99203.05
2023-03-05T04:40:15.035Z,99217.08
2023-03-05T04:42:45.330Z,99219.89
2023-03-05T04:45:17.543Z,99221.86
2023-03-05T04:47:50.342Z,99228.55
2023-03-05T04:50:19.189Z,99223.35
2023-03-05T04:52:54.731Z,99230.42
2023-03-05T04:55:25.285Z,99228.15
2023-03-05T04:57:53.171Z,99231.13
2023-03-05T05:00:22.960Z,99239.90
2023-03-05T05:02:58.001Z,99238.89
2023-03-05T05:11:07.193Z,99253.37
2023-03-05T05:13:39.452Z,99252.70
2023-03-05T05:16:09.186Z,99264.90
2023-03-05T05:18:36.976Z,99267.49
2023-03-05T05:21:11.728Z,99268.21
2023-03-05T05:23:40.626Z,99266.44
2023-03-05T05:26:13.653Z,99272.63
2023-03-05T05:28:47.604Z,99277.60
2023-03-05T05:31:15.936Z,99277.84
2023-03-05T05:33:48.694Z,99287.39
2023-03-05T05:36:18.799Z,99287.45
2023-03-05T05:38:49.077Z,99304.54
2023-03-05T05:41:22.261Z,99293.75
2023-03-05T05:43:51.296Z,99295.80
2023-03-05T05:46:19.818Z,99296.39
2023-03-05T05:48:47.456Z,99300.56
2023-03-05T05:51:19.266Z,99322.30
2023-03-05T05:53:46.618Z,99320.45
2023-03-05T05:56:14.272Z,99315.00
2023-03-05T05:58:51.212Z,99331.56
2023-03-05T06:01:23.957Z,99325.96
2023-03-05T06:03:54.960Z,99315.52
2023-03-05T06:06:28.388Z,99324.23
2023-03-05T06:08:58.215Z,99325.45
2023-03-05T06:11:25.668Z,99313.59
2023-03-05T06:13:54.824Z,99320.80
2023-03-05T06:16:25.842Z,99336.95
2023-03-05T06:18:58.895Z,99330.72
2023-03-05T06:21:26.444Z,99332.60
2023-03-05T06:23:55.809Z,99330.73
2023-03-05T06:26:25.438Z,99320.42
2023-03-05T06:28:57.731Z,99322.46
2023-03-05T06:31:26.087Z,99319.73
2023-03-05T06:33:56.467Z,99333.92
2023-03-05T06:36:26.746Z,99334.98
2023-03-05T06:38:55.849Z,99332.00
2023-03-05T06:41:26.798Z,99337.56
2023-03-05T06:44:20.635Z,99342.04
2023-03-05T06:46:48.100Z,99353.52
2023-03-05T06:49:18.336Z,99350.08
2023-03-05T06:51:49.757Z,99351.55
2023-03-05T06:54:19.217Z,99356.78
2023-03-05T06:56:47.732Z,99365.05
2023-03-05T06:59:16.670Z,99355.17
2023-03-05T07:01:44.412Z,99350.98
2023-03-05T07:04:11.977Z,99358.19
2023-03-05T07:06:39.408Z,99354.60
2023-03-05T07:09:07.345Z,99358.79
2023-03-05T07:11:36.293Z,99358.54
2023-03-05T07:14:03.334Z,99355.83
2023-03-05T07:16:32.798Z,99349.08
2023-03-05T07:19:02.981Z,99346.86
2023-03-05T07:21:32.373Z,99356.50
2023-03-05T07:24:05.410Z,99360.86
2023-03-05T07:26:33.233Z,99361.17
2023-03-05T07:29:04.026Z,99367.79
2023-03-05T07:31:32.774Z,99382.30
2023-03-05T07:34:02.235Z,99380.41
2023-03-05T07:36:34.980Z,99379.73
2023-03-05T07:39:05.597Z,99383.65
2023-03-05T07:41:32.828Z,99394.25
2023-03-05T07:44:01.865Z,99393.31
2023-03-05T07:46:30.618Z,99389.73
2023-03-05T07:48:59.299Z,99396.27
2023-03-05T07:51:27.781Z,99394.14
2023-03-05T07:53:57.986Z,99388.81
2023-03-05T07:56:26.143Z,99385.39
2023-03-05T07:58:53.692Z,99398.26
2023-03-05T08:01:22.094Z,99393.45
2023-03-05T08:03:50.134Z,99387.20
2023-03-05T08:06:20.672Z,99393.20
2023-03-05T08:08:48.265Z,99387.48
2023-03-05T08:11:18.187Z,99386.98
2023-03-05T08:13:46.727Z,99393.79
2023-03-05T08:16:16.535Z,99401.91
2023-03-05T08:18:45.967Z,99395.86
2023-03-05T08:21:19.886Z,99386.70
2023-03-05T08:23:47.735Z,99389.73
2023-03-05T08:26:17.536Z,99393.34
2023-03-05T08:28:45.780Z,99392.83
2023-03-05T08:31:14.870Z,99400.79
2023-03-05T08:33:48.128Z,99404.51
2023-03-05T08:36:15.939Z,99406.58
2023-03-05T08:38:48.081Z,99416.71
2023-03-05T08:41:20.958Z,99411.69
2023-03-05T08:43:56.850Z,99411.17
2023-03-05T08:46:29.021Z,99415.40
2023-03-05T08:49:04.230Z,99403.13
2023-03-05T08:51:31.738Z,99415.39
2023-03-05T08:54:01.761Z,99406.15
2023-03-05T08:56:33.712Z,99402.43
2023-03-05T08:59:02.731Z,99403.80
2023-03-05T09:01:31.975Z,99409.89
2023-03-05T09:04:00.004Z,99412.95
2023-03-05T09:06:34.005Z,99407.55
2023-03-05T09:09:09.229Z,99408.88
2023-03-05T09:11:43.203Z,99408.96
2023-03-05T09:14:10.968Z,99409.63
2023-03-05T09:16:41.981Z,99405.38
2023-03-05T09:19:15.318Z,99402.13
2023-03-05T09:21:42.552Z,99409.66
2023-03-05T09:24:12.805Z,99409.95
2023-03-05T09:26:41.828Z,99408.27
2023-03-05T09:29:11.968Z,99421.96
2023-03-05T09:31:48.156Z,99424.09
2023-03-05T09:34:17.717Z,99411.86
2023-03-05T09:36:44.848Z,99420.22
2023-03-05T09:39:13.647Z,99411.64
2023-03-05T09:42:16.029Z,99412.06
2023-03-05T09:44:49.802Z,99396.77
2023-03-05T09:47:53.364Z,99400.86
2023-03-05T09:50:43.940Z,99409.09
2023-03-05T09:53:38.105Z,99415.73
2023-03-05T09:56:19.946Z,99410.46
2023-03-05T09:58:56.736Z,99407.02
2023-03-05T10:01:38.415Z,99419.48
2023-03-05T10:04:19.104Z,99404.20
2023-03-05T10:07:00.762Z,99402.89
2023-03-05T10:09:45.755Z,99400.45
2023-03-05T10:12:27.126Z,99391.73
2023-03-05T10:15:02.124Z,99394.06
2023-03-05T10:17:37.090Z,99397.64
2023-03-05T10:20:14.106Z,99384.56
2023-03-05T10:23:04.059Z,99392.72
2023-03-05T10:26:01.881Z,99385.83
2023-03-05T10:28:53.232Z,99384.95
2023-03-05T10:31:26.279Z,99387.17
2023-03-05T10:34:23.157Z,99382.91
2023-03-05T10:36:58.805Z,99371.16
2023-03-05T10:39:59.064Z,99384.48
2023-03-05T10:42:36.470Z,99371.35
2023-03-05T10:45:19.690Z,99368.33
2023-03-05T10:48:11.326Z,99381.23
2023-03-05T10:50:50.953Z,99372.75
2023-03-05T10:53:26.209Z,99369.96
2023-03-05T10:55:56.717Z,99369.16
2023-03-05T10:58:25.454Z,99371.04
2023-03-05T11:00:59.825Z,99354.33
2023-03-05T11:03:56.759Z,99361.75
2023-03-05T11:06:48.869Z,99363.23
2023-03-05T11:09:37.149Z,99358.01
2023-03-05T11:12:06.018Z,99369.20
2023-03-05T11:14:38.643Z,99364.90
2023-03-05T11:18:00.365Z,99364.41
2023-03-05T11:20:34.647Z,99358.32
2023-03-05T11:23:12.065Z,99349.41
2023-03-05T11:25:56.827Z,99358.46
2023-03-05T11:28:53.437Z,99365.01
2023-03-05T11:31:24.434Z,99358.35
2023-03-05T11:33:59.665Z,99362.98
2023-03-05T11:36:41.245Z,99362.33
2023-03-05T11:39:16.059Z,99358.51
2023-03-05T11:42:00.766Z,99355.77
2023-03-05T11:44:52.963Z,99354.33
2023-03-05T11:47:35.795Z,99346.17
2023-03-05T11:50:39.636Z,99348.25
2023-03-05T11:53:29.311Z,99359.38
2023-03-05T11:56:33.495Z,99350.05
2023-03-05T11:59:35.720Z,99345.97
2023-03-05T12:02:19.387Z,99356.64
2023-03-05T12:04:47.688Z,99343.98
2023-03-05T12:07:16.575Z,99346.05
2023-03-05T12:09:51.930Z,99343.45
2023-03-05T12:12:30.469Z,99339.05
2023-03-05T12:15:50.051Z,99347.45
2023-03-05T12:18:28.192Z,99350.45
2023-03-05T12:21:15.449Z,99358.88
2023-03-05T12:23:47.838Z,99354.96
2023-03-05T12:26:40.761Z,99356.95
2023-03-05T12:29:28.829Z,99358.92
2023-03-05T12:32:01.541Z,99365.27
2023-03-05T12:37:59.282Z,99363.66
2023-03-05T12:41:17.878Z,99368.45
2023-03-05T12:44:09.565Z,99360.51
2023-03-05T12:46:58.862Z,99361.25
2023-03-05T12:49:42.652Z,99358.17
2023-03-05T12:52:23.660Z,99356.33
2023-03-05T12:55:16.477Z,99364.11
2023-03-05T12:57:45.854Z,99343.62
2023-03-05T13:00:23.082Z,99356.56
2023-03-05T13:02:57.481Z,99352.05
2023-03-05T13:05:36.435Z,99352.63
2023-03-05T13:08:38.016Z,99347.39
2023-03-05T13:12:03.241Z,99340.42
2023-03-05T13:14:46.797Z,99339.40
2023-03-05T13:17:44.563Z,99338.71
2023-03-05T13:20:44.825Z,99344.73
2023-03-05T13:23:15.098Z,99338.63
2023-03-05T13:25:57.223Z,99342.66
2023-03-05T13:28:33.502Z,99337.73
2023-03-05T13:31:14.470Z,99339.59
2023-03-05T13:34:26.592Z,99327.66
2023-03-05T13:37:20.135Z,99323.71
2023-03-05T13:40:21.200Z,99325.08
2023-03-05T13:42:54.251Z,99333.11
2023-03-05T13:45:29.827Z,99331.27
2023-03-05T13:48:01.750Z,99326.21
2023-03-05T13:50:32.779Z,99320.02
2023-03-05T13:53:16.925Z,99322.77
2023-03-05T13:55:52.586Z,99315.92
2023-03-05T13:58:48.856Z,99321.31
2023-03-05T14:01:45.782Z,99318.08
2023-03-05T14:04:44.603Z,99307.34
2023-03-05T14:07:41.566Z,99314.24
2023-03-05T14:10:30.104Z,99312.39
2023-03-05T14:13:00.979Z,99309.27
2023-03-05T14:15:41.159Z,99306.04
2023-03-05T14:18:20.127Z,99299.10
2023-03-05T14:21:01.553Z,99300.31
2023-03-05T14:23:43.915Z,99303.80
2023-03-05T14:26:14.541Z,99287.05
2023-03-05T14:28:52.649Z,99294.73
2023-03-05T14:31:25.833Z,99293.75
2023-03-05T14:34:26.977Z,99294.38
2023-03-05T14:37:19.785Z,99292.23
2023-03-05T14:40:00.078Z,99299.94
2023-03-05T14:42:52.324Z,99301.15
2023-03-05T14:45:28.530Z,99303.63
2023-03-05T14:48:07.535Z,99301.77
2023-03-05T14:51:07.725Z,99297.88
2023-03-05T14:53:52.684Z,99299.08
2023-03-05T14:56:50.817Z,99299.14
2023-03-05T14:59:25.773Z,99294.55
2023-03-05T15:02:11.494Z,99297.42
2023-03-05T15:04:47.012Z,99299.80
2023-03-05T15:07:31.085Z,99300.87
2023-03-05T15:10:07.958Z,99299.42
2023-03-05T15:12:38.329Z,99301.23
2023-03-05T15:15:15.669Z,99303.73
2023-03-05T15:17:52.652Z,99308.39
2023-03-05T15:20:26.202Z,99306.33
2023-03-05T15:23:03.712Z,99310.45
2023-03-05T15:26:06.746Z,99306.43
2023-03-05T15:28:42.873Z,99312.41
2023-03-05T15:31:20.558Z,99312.66
2023-03-05T15:33:58.798Z,99311.58
2023-03-05T15:36:47.960Z,99316.88
2023-03-05T15:39:46.338Z,99317.19
2023-03-05T15:42:17.872Z,99320.88
2023-03-05T15:44:50.178Z,99323.52
2023-03-05T15:47:27.604Z,99323.42
2023-03-05T15:49:57.112Z,99320.40
2023-03-05T15:52:42.553Z,99326.74
2023-03-05T15:55:19.521Z,99322.05
2023-03-05T15:57:53.565Z,99324.96
2023-03-05T16:00:31.147Z,99324.10
2023-03-05T16:03:15.098Z,99324.52
2023-03-05T16:05:50.748Z,99323.77
2023-03-05T16:08:50.950Z,99325.04
2023-03-05T16:11:21.131Z,99328.09
2023-03-05T16:14:12.940Z,99327.36
2023-03-05T16:16:47.993Z,99329.56
2023-03-05T16:19:19.239Z,99330.23
2023-03-05T16:21:54.263Z,99333.39
2023-03-05T16:24:26.362Z,99335.27
2023-03-05T16:26:58.516Z,99338.60
2023-03-05T16:29:59.156Z,99339.11
2023-03-05T16:32:40.245Z,99345.94
2023-03-05T16:35:16.876Z,99346.91
2023-03-05T16:37:52.395Z,99348.73
2023-03-05T16:40:38.807Z,99345.87
2023-03-05T16:43:26.811Z,99352.25
2023-03-05T16:45:57.502Z,99355.92
2023-03-05T16:48:32.052Z,99354.52
2023-03-05T16:51:12.725Z,99356.92
2023-03-05T16:53:47.596Z,99354.20
2023-03-05T16:56:17.106Z,99355.94
2023-03-05T16:58:53.752Z,99356.27
2023-03-05T17:01:53.959Z,99356.91
2023-03-05T17:04:30.011Z,99356.22
2023-03-05T17:07:08.011Z,99352.46
2023-03-05T17:10:58.632Z,99355.42
2023-03-05T17:14:05.763Z,99346.47
2023-03-05T17:16:37.626Z,99346.66
2023-03-05T17:19:37.174Z,99345.44
2023-03-05T17:23:04.601Z,99350.33
2023-03-05T17:25:38.637Z,99349.08
2023-03-05T17:28:39.908Z,99353.15
2023-03-05T17:31:11.849Z,99353.39
2023-03-05T17:33:52.108Z,99350.78
2023-03-05T17:36:50.741Z,99352.17
2023-03-05T17:39:49.714Z,99348.95
2023-03-05T17:42:24.734Z,99343.38
2023-03-05T17:44:56.182Z,99348.75
2023-03-05T17:47:33.364Z,99351.08
2023-03-05T17:50:08.183Z,99350.38
2023-03-05T17:52:44.816Z,99349.71
2023-03-05T17:55:20.422Z,99352.13
2023-03-05T17:57:56.018Z,99352.27
2023-03-05T18:00:28.590Z,99351.06
2023-03-05T18:03:03.051Z,99349.77
2023-03-05T18:05:34.255Z,99351.73
2023-03-05T18:08:07.442Z,99352.77
2023-03-05T18:10:45.653Z,99357.40
2023-03-05T18:13:17.481Z,99352.85
2023-03-05T18:15:49.168Z,99354.34
2023-03-05T18:18:19.949Z,99347.77
2023-03-05T18:21:45.515Z,99354.27
2023-03-05T18:24:16.968Z,99358.45
2023-03-05T18:26:46.061Z,99356.31
2023-03-05T18:29:18.612Z,99352.66
2023-03-05T18:31:49.227Z,99355.52
2023-03-05T18:34:21.133Z,99355.78
2023-03-05T18:36:51.609Z,99355.92
2023-03-05T18:39:33.616Z,99357.41
2023-03-05T18:42:03.647Z,99354.84
2023-03-05T18:44:32.420Z,99364.09
2023-03-05T18:47:02.272Z,99362.88
2023-03-05T18:49:32.780Z,99361.64
2023-03-05T18:52:04.834Z,99351.38
2023-03-05T18:54:37.150Z,99362.08
2023-03-05T18:57:31.993Z,99362.12
2023-03-05T19:00:48.759Z,99361.79
2023-03-05T19:03:22.572Z,99358.20
2023-03-05T19:05:53.873Z,99355.61
2023-03-05T19:08:27.702Z,99361.41
2023-03-05T19:11:01.194Z,99363.81
2023-03-05T19:13:48.654Z,99362.62
2023-03-05T19:16:24.246Z,99362.54
2023-03-05T19:19:19.233Z,99361.98
2023-03-05T19:21:56.554Z,99359.95
2023-03-05T19:24:29.200Z,99361.45
2023-03-05T19:27:03.380Z,99359.65
2023-03-05T19:29:37.127Z,99357.91
2023-03-05T19:32:09.274Z,99357.90
2023-03-05T19:34:39.338Z,99359.42
2023-03-05T19:37:11.367Z,99354.80
2023-03-05T19:40:13.407Z,99356.09
2023-03-05T19:46:49.099Z,99350.19
2023-03-05T19:49:19.682Z,99346.92
2023-03-05T19:51:47.717Z,99345.56
2023-03-05T19:54:18.403Z,99346.55
2023-03-05T19:56:48.439Z,99347.89
2023-03-05T19:59:17.998Z,99347.89
2023-03-05T20:02:01.356Z,99350.38
2023-03-05T20:04:31.518Z,99350.44
2023-03-05T20:06:59.925Z,99345.27
2023-03-05T20:09:31.499Z,99343.48
2023-03-05T20:12:30.386Z,99344.06
2023-03-05T20:15:21.845Z,99339.17
2023-03-05T20:18:01.685Z,99337.56
2023-03-05T20:21:03.191Z,99336.79
2023-03-05T20:24:10.101Z,99333.43
2023-03-05T20:26:40.885Z,99335.77
2023-03-05T20:29:23.138Z,99335.79
2023-03-05T20:31:56.069Z,99333.35
2023-03-05T20:34:37.778Z,99332.79
2023-03-05T20:37:09.372Z,99330.79
2023-03-05T20:39:38.737Z,99330.89
2023-03-05T20:42:09.818Z,99331.60
2023-03-05T20:44:52.176Z,99332.83
2023-03-05T20:47:45.775Z,99331.27
2023-03-05T20:50:19.452Z,99334.33
2023-03-05T20:53:43.456Z,99328.60
2023-03-05T20:56:14.313Z,99323.87
2023-03-05T20:58:46.826Z,99324.41
2023-03-05T21:01:24.381Z,99323.01
2023-03-05T21:04:02.336Z,99319.64
2023-03-05T21:06:36.761Z,99320.36
2023-03-05T21:09:06.691Z,99315.99
2023-03-05T21:11:56.092Z,99312.30
2023-03-05T21:14:47.645Z,99307.35
2023-03-05T21:17:25.662Z,99309.23
2023-03-05T21:19:58.648Z,99305.76
2023-03-05T21:22:30.013Z,99305.39
2023-03-05T21:25:20.191Z,99301.05
2023-03-05T21:28:04.115Z,99303.09
2023-03-05T21:30:52.937Z,99300.63
2023-03-05T21:33:29.579Z,99302.96
2023-03-05T21:35:59.336Z,99307.44
2023-03-05T21:38:32.829Z,99309.16
2023-03-05T21:41:06.002Z,99305.78
2023-03-05T21:43:41.194Z,99310.34
2023-03-05T21:46:14.097Z,99311.02
2023-03-05T21:48:43.965Z,99303.67
2023-03-05T21:51:38.432Z,99303.78
2023-03-05T21:54:19.623Z,99300.50
2023-03-05T21:56:50.069Z,99302.29
2023-03-05T21:59:21.348Z,99305.54
2023-03-05T22:01:57.020Z,99303.78
2023-03-05T22:04:28.964Z,99304.21
2023-03-05T22:07:07.308Z,99306.46
2023-03-05T22:09:38.057Z,99304.42
2023-03-05T22:13:03.301Z,99306.30
2023-03-05T22:15:31.802Z,99303.01
2023-03-05T22:18:11.115Z,99301.18
2023-03-05T22:20:46.851Z,99297.44
2023-03-05T22:23:18.032Z,99296.52
2023-03-05T22:25:46.814Z,99295.61
2023-03-05T22:28:15.753Z,99292.66
2023-03-05T22:30:48.308Z,99293.86
2023-03-05T22:33:21.920Z,99292.68
2023-03-05T22:35:56.382Z,99296.64
2023-03-05T22:38:28.364Z,99297.89
2023-03-05T22:41:08.695Z,99298.73
2023-03-05T22:43:40.080Z,99302.19
2023-03-05T22:46:20.820Z,99301.61
2023-03-05T22:48:52.995Z,99301.56
2023-03-05T22:51:21.453Z,99301.75
2023-03-05T22:53:55.593Z,99300.13
2023-03-05T22:56:31.035Z,99300.36
2023-03-05T22:58:59.928Z,99304.10
2023-03-05T23:01:31.580Z,99304.13
2023-03-05T23:04:28.981Z,99304.19
2023-03-05T23:07:11.027Z,99304.67
2023-03-05T23:09:40.861Z,99306.45
2023-03-05T23:12:11.699Z,99303.92
2023-03-05T23:14:45.476Z,99296.35
2023-03-05T23:17:16.955Z,99299.01
2023-03-05T23:20:16.354Z,99299.71
2023-03-05T23:22:44.723Z,99303.05
2023-03-05T23:25:17.918Z,99300.30
2023-03-05T23:27:50.348Z,99303.80
2023-03-05T23:30:31.095Z,99300.86
2023-03-05T23:33:19.549Z,99303.39
2023-03-05T23:35:56.074Z,99297.52
2023-03-05T23:38:29.112Z,99298.23
2023-03-05T23:41:02.391Z,99298.18
2023-03-05T23:43:34.831Z,99296.40
2023-03-05T23:46:11.858Z,99297.86
2023-03-05T23:48:45.429Z,99291.73
2023-03-05T23:51:17.651Z,99294.52
2023-03-05T23:53:47.918Z,99293.38
2023-03-05T23:56:17.061Z,99291.90
2023-03-05T23:58:46.668Z,99293.86
